createdAt,value
2019-02-15T00:00:44.986Z,98362.59
2019-02-15T00:03:14.617Z,98372.73
2019-02-15T00:05:44.211Z,98366.88
2019-02-15T00:08:13.807Z,98364.80
2019-02-15T00:10:43.430Z,98364.70
2019-02-15T00:13:13.853Z,98368.88
2019-02-15T00:15:43.688Z,98365.73
2019-02-15T00:18:30.314Z,98364.55
2019-02-15T00:21:01.613Z,98370.03
2019-02-15T00:23:31.203Z,98358.45
2019-02-15T00:26:00.815Z,98354.75
2019-02-15T00:28:30.409Z,98352.90
2019-02-15T00:31:00.007Z,98345.40
2019-02-15T00:33:29.628Z,98339.87
2019-02-15T00:35:59.244Z,98344.23
2019-02-15T00:38:29.169Z,98344.02
2019-02-15T00:40:59.049Z,98340.19
2019-02-15T00:43:28.641Z,98343.42
2019-02-15T00:46:05.780Z,98336.69
2019-02-15T00:48:35.373Z,98327.91
2019-02-15T00:51:22.512Z,98330.46
2019-02-15T00:53:53.764Z,98337.55
2019-02-15T00:56:27.669Z,98328.70
2019-02-15T00:59:02.828Z,98332.52
2019-02-15T01:01:48.767Z,98331.73
2019-02-15T01:04:36.254Z,98340.08
2019-02-15T01:07:16.573Z,98334.61
2019-02-15T01:09:59.468Z,98334.22
2019-02-15T01:12:30.727Z,98334.36
2019-02-15T01:15:00.338Z,98329.33
2019-02-15T01:17:29.964Z,98323.91
2019-02-15T01:19:59.550Z,98329.97
2019-02-15T01:22:29.146Z,98329.11
2019-02-15T01:24:59.872Z,98324.86
2019-02-15T01:27:34.183Z,98329.89
2019-02-15T01:30:09.424Z,98327.52
2019-02-15T01:32:47.219Z,98324.84
2019-02-15T01:35:18.478Z,98320.80
2019-02-15T01:37:49.778Z,98312.69
2019-02-15T01:40:32.888Z,98291.77
2019-02-15T01:43:04.207Z,98290.20
2019-02-15T01:45:35.521Z,98295.15
2019-02-15T01:48:05.148Z,98285.41
2019-02-15T01:50:34.772Z,98288.38
2019-02-15T01:53:05.274Z,98287.90
2019-02-15T01:55:34.877Z,98288.90
2019-02-15T01:58:04.492Z,98285.50
2019-02-15T02:00:35.813Z,98280.64
2019-02-15T02:03:05.480Z,98276.34
2019-02-15T02:05:35.106Z,98276.71
2019-02-15T02:08:06.484Z,98267.30
2019-02-15T02:10:36.075Z,98258.36
2019-02-15T02:13:05.733Z,98269.52
2019-02-15T02:15:35.368Z,98256.63
2019-02-15T02:18:04.957Z,98261.02
2019-02-15T02:20:34.549Z,98249.70
2019-02-15T02:23:04.173Z,98263.38
2019-02-15T02:25:33.773Z,98253.34
2019-02-15T02:28:03.395Z,98256.12
2019-02-15T02:30:33.065Z,98256.70
2019-02-15T02:33:02.691Z,98262.33
2019-02-15T02:35:32.293Z,98254.53
2019-02-15T02:38:01.910Z,98251.95
2019-02-15T02:40:31.507Z,98260.22
2019-02-15T02:43:01.210Z,98252.23
2019-02-15T02:45:30.806Z,98262.50
2019-02-15T02:48:00.427Z,98261.20
2019-02-15T02:50:30.042Z,98263.06
2019-02-15T02:52:59.641Z,98264.91
2019-02-15T02:55:29.566Z,98271.23
2019-02-15T02:57:59.223Z,98269.06
2019-02-15T03:00:33.636Z,98271.61
2019-02-15T03:03:00.213Z,98275.23
2019-02-15T03:05:29.829Z,98285.05
2019-02-15T03:07:59.420Z,98279.23
2019-02-15T03:10:29.624Z,98284.86
2019-02-15T03:12:59.244Z,98284.20
2019-02-15T03:15:28.841Z,98277.93
2019-02-15T03:17:58.436Z,98286.97
2019-02-15T03:20:31.267Z,98281.06
2019-02-15T03:22:59.376Z,98286.41
2019-02-15T03:25:29.001Z,98283.74
2019-02-15T03:27:58.626Z,98282.88
2019-02-15T03:30:28.256Z,98293.73
2019-02-15T03:32:57.851Z,98287.27
2019-02-15T03:35:27.452Z,98277.98
2019-02-15T03:38:01.678Z,98284.22
2019-02-15T03:40:32.909Z,98283.28
2019-02-15T03:43:02.528Z,98286.86
2019-02-15T03:45:32.161Z,98284.91
2019-02-15T03:48:01.761Z,98288.85
2019-02-15T03:50:31.382Z,98288.52
2019-02-15T03:53:00.979Z,98280.30
2019-02-15T03:55:30.615Z,98277.72
2019-02-15T03:58:00.234Z,98272.55
2019-02-15T04:00:30.010Z,98285.18
2019-02-15T04:02:59.678Z,98275.11
2019-02-15T04:05:29.282Z,98274.92
2019-02-15T04:07:58.913Z,98283.38
2019-02-15T04:10:28.502Z,98282.86
2019-02-15T04:12:58.131Z,98277.23
2019-02-15T04:15:27.727Z,98277.79
2019-02-15T04:17:57.352Z,98275.30
2019-02-15T04:20:26.951Z,98278.42
2019-02-15T04:22:56.577Z,98275.73
2019-02-15T04:25:26.180Z,98266.55
2019-02-15T04:27:55.816Z,98262.78
2019-02-15T04:30:25.422Z,98264.86
2019-02-15T04:32:55.037Z,98262.83
2019-02-15T04:35:24.662Z,98268.05
2019-02-15T04:37:54.283Z,98269.91
2019-02-15T04:40:24.716Z,98272.94
2019-02-15T04:42:54.345Z,98266.00
2019-02-15T04:45:23.934Z,98246.15
2019-02-15T04:47:53.561Z,98247.23
2019-02-15T04:50:23.165Z,98254.45
2019-02-15T04:52:53.091Z,98253.83
2019-02-15T04:55:22.685Z,98255.45
2019-02-15T04:57:52.319Z,98250.25
2019-02-15T05:00:21.916Z,98256.02
2019-02-15T05:02:51.541Z,98249.35
2019-02-15T05:05:21.137Z,98246.33
2019-02-15T05:07:50.766Z,98239.42
2019-02-15T05:10:20.642Z,98236.77
2019-02-15T05:12:50.283Z,98241.88
2019-02-15T05:15:19.872Z,98239.72
2019-02-15T05:17:49.498Z,98239.70
2019-02-15T05:20:19.101Z,98242.40
2019-02-15T05:22:49.604Z,98248.44
2019-02-15T05:25:19.178Z,98244.98
2019-02-15T05:27:48.769Z,98245.89
2019-02-15T05:30:18.396Z,98245.75
2019-02-15T05:32:48.068Z,98245.42
2019-02-15T05:35:19.118Z,98240.28
2019-02-15T05:37:49.507Z,98249.03
2019-02-15T05:40:19.132Z,98244.78
2019-02-15T05:42:48.762Z,98240.46
2019-02-15T05:45:19.142Z,98246.08
2019-02-15T05:47:49.313Z,98251.86
2019-02-15T05:50:18.924Z,98249.47
2019-02-15T05:52:48.546Z,98253.75
2019-02-15T05:55:18.909Z,98246.42
2019-02-15T05:57:48.536Z,98253.53
2019-02-15T06:00:18.205Z,98245.80
2019-02-15T06:02:48.210Z,98249.33
2019-02-15T06:05:17.877Z,98261.33
2019-02-15T06:07:48.041Z,98259.39
2019-02-15T06:10:17.702Z,98264.50
2019-02-15T06:12:47.323Z,98262.88
2019-02-15T06:15:16.921Z,98266.78
2019-02-15T06:17:46.597Z,98269.80
2019-02-15T06:20:17.996Z,98269.75
2019-02-15T06:22:47.625Z,98272.86
2019-02-15T06:25:17.220Z,98272.88
2019-02-15T06:27:46.840Z,98284.52
2019-02-15T06:30:16.438Z,98276.86
2019-02-15T06:32:46.069Z,98278.67
2019-02-15T06:35:15.675Z,98281.41
2019-02-15T06:37:45.267Z,98284.78
2019-02-15T06:40:14.898Z,98284.03
2019-02-15T06:42:44.492Z,98285.47
2019-02-15T06:45:23.974Z,98288.41
2019-02-15T06:47:46.448Z,98290.92
2019-02-15T06:50:16.074Z,98279.37
2019-02-15T06:52:45.678Z,98291.78
2019-02-15T06:55:15.399Z,98284.23
2019-02-15T06:57:44.993Z,98288.04
2019-02-15T07:00:16.400Z,98287.76
2019-02-15T07:02:53.358Z,98282.64
2019-02-15T07:05:28.393Z,98296.63
2019-02-15T07:07:58.021Z,98308.33
2019-02-15T07:10:27.615Z,98304.05
2019-02-15T07:12:57.221Z,98310.38
2019-02-15T07:15:33.392Z,98315.92
2019-02-15T07:17:58.148Z,98325.17
2019-02-15T07:20:27.768Z,98329.47
2019-02-15T07:22:57.353Z,98330.00
2019-02-15T07:25:28.642Z,98341.79
2019-02-15T07:27:58.253Z,98343.83
2019-02-15T07:30:27.879Z,98343.72
2019-02-15T07:32:57.463Z,98345.33
2019-02-15T07:35:27.051Z,98350.86
2019-02-15T07:37:57.409Z,98343.15
2019-02-15T07:40:27.034Z,98358.62
2019-02-15T07:42:56.649Z,98346.72
2019-02-15T07:45:26.242Z,98351.23
2019-02-15T07:47:55.867Z,98348.78
2019-02-15T07:50:25.460Z,98352.94
2019-02-15T07:52:55.845Z,98360.52
2019-02-15T07:55:25.488Z,98365.05
2019-02-15T07:57:55.472Z,98363.14
2019-02-15T08:00:25.072Z,98356.14
2019-02-15T08:02:54.695Z,98350.13
2019-02-15T08:05:24.362Z,98353.53
2019-02-15T08:07:53.974Z,98347.16
2019-02-15T08:10:23.574Z,98349.48
2019-02-15T08:12:53.199Z,98355.21
2019-02-15T08:15:23.924Z,98352.27
2019-02-15T08:17:53.551Z,98349.38
2019-02-15T08:20:23.175Z,98347.33
2019-02-15T08:22:52.762Z,98353.28
2019-02-15T08:25:23.265Z,98348.22
2019-02-15T08:27:52.854Z,98343.77
2019-02-15T08:30:23.463Z,98341.50
2019-02-15T08:32:53.079Z,98341.63
2019-02-15T08:35:22.676Z,98342.09
2019-02-15T08:37:52.287Z,98347.89
2019-02-15T08:40:21.932Z,98340.13
2019-02-15T08:42:51.600Z,98333.39
2019-02-15T08:45:21.220Z,98337.47
2019-02-15T08:47:51.080Z,98341.01
2019-02-15T08:50:22.368Z,98339.11
2019-02-15T08:52:51.985Z,98341.09
2019-02-15T08:55:22.056Z,98336.75
2019-02-15T08:57:51.677Z,98335.69
2019-02-15T09:00:21.295Z,98341.03
2019-02-15T09:02:51.248Z,98339.47
2019-02-15T09:05:20.859Z,98350.78
2019-02-15T09:07:50.520Z,98341.14
2019-02-15T09:10:20.140Z,98339.05
2019-02-15T09:12:49.818Z,98324.67
2019-02-15T09:15:23.626Z,98331.19
2019-02-15T09:17:53.948Z,98326.44
2019-02-15T09:20:23.864Z,98330.14
2019-02-15T09:22:54.122Z,98320.89
2019-02-15T09:25:25.586Z,98321.45
2019-02-15T09:28:14.984Z,98320.96
2019-02-15T09:30:46.486Z,98319.42
2019-02-15T09:33:16.100Z,98319.08
2019-02-15T09:35:45.742Z,98315.44
2019-02-15T09:38:15.328Z,98306.81
2019-02-15T09:40:44.914Z,98315.53
2019-02-15T09:43:14.536Z,98316.84
2019-02-15T09:45:44.151Z,98308.19
2019-02-15T09:48:13.817Z,98304.19
2019-02-15T09:50:43.836Z,98303.08
2019-02-15T09:53:13.457Z,98301.63
2019-02-15T09:55:43.069Z,98310.39
2019-02-15T09:58:12.659Z,98306.09
2019-02-15T10:00:42.278Z,98309.56
2019-02-15T10:03:12.637Z,98311.67
2019-02-15T10:05:42.320Z,98304.38
2019-02-15T10:08:11.918Z,98299.64
2019-02-15T10:10:41.772Z,98302.25
2019-02-15T10:13:11.370Z,98305.39
2019-02-15T10:15:41.004Z,98313.47
2019-02-15T10:18:10.594Z,98309.66
2019-02-15T10:20:40.221Z,98307.38
2019-02-15T10:23:09.819Z,98304.67
2019-02-15T10:25:39.448Z,98300.74
2019-02-15T10:28:09.809Z,98296.73
2019-02-15T10:30:40.105Z,98299.46
2019-02-15T10:33:09.702Z,98290.58
2019-02-15T10:35:39.598Z,98289.86
2019-02-15T10:38:09.422Z,98295.92
2019-02-15T10:40:39.051Z,98297.76
2019-02-15T10:43:08.745Z,98303.51
2019-02-15T10:45:38.648Z,98301.94
2019-02-15T10:48:08.344Z,98296.45
2019-02-15T10:50:38.192Z,98296.33
2019-02-15T10:53:07.797Z,98293.80
2019-02-15T10:55:38.166Z,98288.92
2019-02-15T10:58:08.846Z,98292.02
2019-02-15T11:00:38.510Z,98287.70
2019-02-15T11:03:08.208Z,98295.92
2019-02-15T11:05:37.828Z,98291.17
2019-02-15T11:08:07.529Z,98290.83
2019-02-15T11:10:37.157Z,98297.30
2019-02-15T11:13:07.665Z,98302.17
2019-02-15T11:15:37.269Z,98300.02
2019-02-15T11:18:06.881Z,98302.27
2019-02-15T11:20:36.499Z,98313.71
2019-02-15T11:23:06.115Z,98303.83
2019-02-15T11:25:35.712Z,98311.52
2019-02-15T11:28:05.323Z,98308.17
2019-02-15T11:30:34.948Z,98313.83
2019-02-15T11:33:04.643Z,98311.47
2019-02-15T11:35:34.230Z,98322.25
2019-02-15T11:38:04.124Z,98327.61
2019-02-15T11:40:33.709Z,98325.13
2019-02-15T11:43:04.083Z,98332.32
2019-02-15T11:45:33.700Z,98331.31
2019-02-15T11:48:03.287Z,98327.23
2019-02-15T11:50:32.898Z,98336.91
2019-02-15T11:53:02.517Z,98336.30
2019-02-15T11:55:32.141Z,98334.13
2019-02-15T11:58:01.734Z,98334.48
2019-02-15T12:00:35.727Z,98339.81
2019-02-15T12:03:05.488Z,98337.77
2019-02-15T12:05:35.077Z,98339.24
2019-02-15T12:08:04.703Z,98326.91
2019-02-15T12:10:34.293Z,98335.89
2019-02-15T12:13:03.916Z,98326.41
2019-02-15T12:15:33.507Z,98339.20
2019-02-15T12:18:03.128Z,98334.13
2019-02-15T12:20:32.729Z,98333.48
2019-02-15T12:23:02.353Z,98333.09
2019-02-15T12:25:32.052Z,98329.63
2019-02-15T12:28:01.651Z,98320.42
2019-02-15T12:30:31.322Z,98322.49
2019-02-15T12:33:01.054Z,98325.47
2019-02-15T12:35:30.646Z,98322.58
2019-02-15T12:38:00.243Z,98319.50
2019-02-15T12:40:29.861Z,98321.41
2019-02-15T12:42:59.481Z,98315.42
2019-02-15T12:45:29.149Z,98315.16
2019-02-15T12:47:58.779Z,98311.13
2019-02-15T12:50:28.384Z,98307.33
2019-02-15T12:52:58.009Z,98308.48
2019-02-15T12:55:27.628Z,98297.72
2019-02-15T12:57:57.229Z,98297.44
2019-02-15T13:00:26.856Z,98288.06
2019-02-15T13:02:56.465Z,98291.25
2019-02-15T13:05:26.091Z,98280.38
2019-02-15T13:07:56.022Z,98283.69
2019-02-15T13:10:30.210Z,98286.56
2019-02-15T13:12:59.844Z,98283.17
2019-02-15T13:15:29.444Z,98279.00
2019-02-15T13:17:59.142Z,98281.25
2019-02-15T13:20:28.848Z,98277.83
2019-02-15T13:22:58.487Z,98268.45
2019-02-15T13:25:36.598Z,98274.73
2019-02-15T13:27:59.442Z,98267.49
2019-02-15T13:30:29.079Z,98261.75
2019-02-15T13:32:58.675Z,98261.22
2019-02-15T13:35:28.289Z,98262.72
2019-02-15T13:37:57.985Z,98269.25
2019-02-15T13:40:27.630Z,98266.50
2019-02-15T13:42:57.226Z,98264.50
2019-02-15T13:45:26.826Z,98262.33
2019-02-15T13:47:56.690Z,98261.47
2019-02-15T13:50:26.291Z,98265.93
2019-02-15T13:52:55.889Z,98265.42
2019-02-15T13:55:25.525Z,98258.66
2019-02-15T13:57:55.134Z,98262.49
2019-02-15T14:00:25.325Z,98266.03
2019-02-15T14:02:54.922Z,98257.80
2019-02-15T14:05:24.561Z,98255.89
2019-02-15T14:07:54.162Z,98253.23
2019-02-15T14:10:23.828Z,98256.83
2019-02-15T14:12:53.465Z,98255.24
2019-02-15T14:15:23.089Z,98253.91
2019-02-15T14:17:52.708Z,98257.43
2019-02-15T14:20:22.317Z,98262.72
2019-02-15T14:22:51.942Z,98252.09
2019-02-15T14:25:21.554Z,98253.89
2019-02-15T14:27:51.937Z,98247.17
2019-02-15T14:30:21.542Z,98251.72
2019-02-15T14:32:51.169Z,98253.45
2019-02-15T14:35:20.795Z,98243.95
2019-02-15T14:37:52.454Z,98246.06
2019-02-15T14:40:22.158Z,98245.95
2019-02-15T14:42:52.571Z,98248.02
2019-02-15T14:45:22.204Z,98244.62
2019-02-15T14:47:55.296Z,98250.59
2019-02-15T14:50:23.864Z,98244.45
2019-02-15T14:52:53.758Z,98244.64
2019-02-15T14:55:23.394Z,98243.72
2019-02-15T14:57:52.999Z,98243.46
2019-02-15T15:00:22.649Z,98239.34
2019-02-15T15:02:52.707Z,98235.25
2019-02-15T15:05:22.338Z,98237.64
2019-02-15T15:07:51.943Z,98235.98
2019-02-15T15:10:22.356Z,98240.73
2019-02-15T15:12:51.962Z,98237.46
2019-02-15T15:15:21.567Z,98242.20
2019-02-15T15:18:00.649Z,98242.13
2019-02-15T15:20:22.519Z,98240.45
2019-02-15T15:22:52.152Z,98242.27
2019-02-15T15:25:21.750Z,98241.05
2019-02-15T15:27:51.377Z,98239.67
2019-02-15T15:30:20.982Z,98243.25
2019-02-15T15:32:50.606Z,98243.39
2019-02-15T15:35:20.222Z,98244.56
2019-02-15T15:37:49.852Z,98239.80
2019-02-15T15:40:19.447Z,98242.49
2019-02-15T15:42:49.070Z,98244.13
2019-02-15T15:45:18.957Z,98242.73
2019-02-15T15:47:48.580Z,98242.73
2019-02-15T15:50:18.172Z,98248.09
2019-02-15T15:52:47.769Z,98246.21
2019-02-15T15:55:17.920Z,98249.88
2019-02-15T15:57:47.525Z,98251.27
2019-02-15T16:00:17.656Z,98249.17
2019-02-15T16:02:47.318Z,98251.91
2019-02-15T16:05:16.941Z,98254.98
2019-02-15T16:07:46.539Z,98252.73
2019-02-15T16:10:17.025Z,98263.56
2019-02-15T16:12:46.607Z,98267.84
2019-02-15T16:15:16.737Z,98274.28
2019-02-15T16:17:46.329Z,98276.94
2019-02-15T16:20:15.922Z,98274.49
2019-02-15T16:22:45.538Z,98280.25
2019-02-15T16:25:15.450Z,98288.19
2019-02-15T16:27:45.069Z,98286.39
2019-02-15T16:30:16.396Z,98292.84
2019-02-15T16:32:46.008Z,98295.84
2019-02-15T16:35:15.693Z,98297.30
2019-02-15T16:37:45.319Z,98296.82
2019-02-15T16:40:16.359Z,98294.92
2019-02-15T16:42:46.038Z,98292.89
2019-02-15T16:45:16.675Z,98297.82
2019-02-15T16:47:46.326Z,98300.62
2019-02-15T16:50:16.021Z,98304.23
2019-02-15T16:52:45.615Z,98306.99
2019-02-15T16:55:15.303Z,98295.67
2019-02-15T16:57:44.907Z,98301.67
2019-02-15T17:00:15.137Z,98297.80
2019-02-15T17:02:44.732Z,98303.52
2019-02-15T17:05:14.771Z,98305.36
2019-02-15T17:07:44.836Z,98304.92
2019-02-15T17:10:14.569Z,98304.06
2019-02-15T17:12:44.260Z,98311.38
2019-02-15T17:15:17.108Z,98307.76
2019-02-15T17:17:46.737Z,98306.87
2019-02-15T17:20:16.334Z,98314.81
2019-02-15T17:22:45.951Z,98313.02
2019-02-15T17:25:15.623Z,98309.78
2019-02-15T17:27:45.274Z,98310.64
2019-02-15T17:30:15.007Z,98314.11
2019-02-15T17:32:44.598Z,98309.53
2019-02-15T17:35:14.224Z,98309.31
2019-02-15T17:37:44.609Z,98306.02
2019-02-15T17:40:16.696Z,98313.48
2019-02-15T17:42:46.387Z,98314.72
2019-02-15T17:45:16.146Z,98313.34
2019-02-15T17:47:45.751Z,98318.99
2019-02-15T17:50:15.440Z,98320.44
2019-02-15T17:52:45.060Z,98321.32
2019-02-15T17:55:14.797Z,98316.77
2019-02-15T17:57:44.570Z,98315.72
2019-02-15T18:00:17.409Z,98315.63
2019-02-15T18:02:47.003Z,98315.63
2019-02-15T18:05:16.735Z,98309.74
2019-02-15T18:07:50.874Z,98304.09
2019-02-15T18:10:20.477Z,98309.00
2019-02-15T18:12:50.072Z,98298.34
2019-02-15T18:15:19.761Z,98306.89
2019-02-15T18:17:49.362Z,98308.05
2019-02-15T18:20:18.975Z,98304.97
2019-02-15T18:22:48.572Z,98304.61
2019-02-15T18:25:18.170Z,98300.38
2019-02-15T18:27:47.788Z,98299.59
2019-02-15T18:30:18.218Z,98299.76
2019-02-15T18:32:48.052Z,98300.82
2019-02-15T18:35:18.113Z,98299.08
2019-02-15T18:37:47.740Z,98306.27
2019-02-15T18:40:17.404Z,98296.67
2019-02-15T18:42:47.009Z,98299.50
2019-02-15T18:45:17.771Z,98303.53
2019-02-15T18:47:47.367Z,98309.80
2019-02-15T18:50:16.984Z,98311.14
2019-02-15T18:52:46.612Z,98296.36
2019-02-15T18:55:16.230Z,98303.45
2019-02-15T18:57:45.826Z,98301.87
2019-02-15T19:00:17.133Z,98302.68
2019-02-15T19:02:51.990Z,98305.64
2019-02-15T19:05:21.723Z,98311.60
2019-02-15T19:07:51.309Z,98307.47
2019-02-15T19:10:24.874Z,98307.91
2019-02-15T19:12:54.468Z,98305.79
2019-02-15T19:15:24.228Z,98306.55
2019-02-15T19:17:53.833Z,98309.95
2019-02-15T19:20:23.472Z,98304.69
2019-02-15T19:22:53.067Z,98299.88
2019-02-15T19:25:22.662Z,98304.74
2019-02-15T19:27:52.289Z,98310.36
2019-02-15T19:30:26.765Z,98304.81
2019-02-15T19:32:56.385Z,98310.55
2019-02-15T19:35:25.977Z,98310.05
2019-02-15T19:37:55.603Z,98305.05
2019-02-15T19:40:25.226Z,98302.95
2019-02-15T19:43:02.085Z,98305.75
2019-02-15T19:45:31.725Z,98306.33
2019-02-15T19:48:01.343Z,98308.97
2019-02-15T19:50:30.969Z,98306.45
2019-02-15T19:53:00.562Z,98312.69
2019-02-15T19:55:30.191Z,98308.52
2019-02-15T19:57:59.819Z,98306.25
2019-02-15T20:00:30.182Z,98310.43
2019-02-15T20:03:00.082Z,98309.81
2019-02-15T20:05:29.705Z,98301.19
2019-02-15T20:07:59.303Z,98307.25
2019-02-15T20:10:29.293Z,98309.57
2019-02-15T20:13:00.774Z,98307.25
2019-02-15T20:15:30.232Z,98315.67
2019-02-15T20:17:59.833Z,98309.01
2019-02-15T20:20:29.448Z,98308.77
2019-02-15T20:22:59.074Z,98312.95
2019-02-15T20:25:28.699Z,98313.09
2019-02-15T20:27:58.283Z,98312.66
2019-02-15T20:30:27.918Z,98311.13
2019-02-15T20:32:57.500Z,98308.85
2019-02-15T20:35:27.127Z,98308.92
2019-02-15T20:37:56.719Z,98300.11
2019-02-15T20:40:26.328Z,98310.19
2019-02-15T20:42:55.928Z,98310.38
2019-02-15T20:45:25.722Z,98312.66
2019-02-15T20:47:55.316Z,98307.53
2019-02-15T20:50:24.941Z,98309.02
2019-02-15T20:52:54.531Z,98316.79
2019-02-15T20:55:26.324Z,98324.74
2019-02-15T20:57:55.502Z,98322.20
2019-02-15T21:00:31.658Z,98327.23
2019-02-15T21:03:02.149Z,98331.17
2019-02-15T21:05:31.765Z,98327.16
2019-02-15T21:08:01.385Z,98323.59
2019-02-15T21:10:31.748Z,98323.55
2019-02-15T21:13:01.371Z,98334.63
2019-02-15T21:15:30.962Z,98336.00
2019-02-15T21:18:00.583Z,98327.62
2019-02-15T21:20:30.206Z,98323.67
2019-02-15T21:22:59.802Z,98319.76
2019-02-15T21:25:29.423Z,98309.37
2019-02-15T21:27:59.017Z,98313.98
2019-02-15T21:30:28.644Z,98316.26
2019-02-15T21:32:58.262Z,98315.63
2019-02-15T21:35:27.893Z,98312.77
2019-02-15T21:37:57.485Z,98315.52
2019-02-15T21:40:27.113Z,98314.91
2019-02-15T21:42:57.045Z,98322.80
2019-02-15T21:45:26.665Z,98318.04
2019-02-15T21:47:56.256Z,98314.88
2019-02-15T21:50:25.868Z,98306.55
2019-02-15T21:52:55.488Z,98310.25
2019-02-15T21:55:25.114Z,98309.44
2019-02-15T21:58:01.123Z,98308.42
2019-02-15T22:00:28.272Z,98304.25
2019-02-15T22:02:58.200Z,98305.66
2019-02-15T22:05:27.789Z,98310.91
2019-02-15T22:07:57.406Z,98314.76
2019-02-15T22:10:27.067Z,98315.67
2019-02-15T22:12:56.700Z,98311.80
2019-02-15T22:15:26.301Z,98317.69
2019-02-15T22:17:55.903Z,98318.08
2019-02-15T22:20:27.042Z,98315.63
2019-02-15T22:22:56.889Z,98315.39
2019-02-15T22:25:26.513Z,98314.68
2019-02-15T22:27:56.109Z,98313.91
2019-02-15T22:30:26.008Z,98313.98
2019-02-15T22:32:55.631Z,98313.67
2019-02-15T22:35:25.231Z,98311.15
2019-02-15T22:37:55.340Z,98311.20
2019-02-15T22:40:34.000Z,98314.30
2019-02-15T22:43:11.577Z,98314.30
2019-02-15T22:45:41.196Z,98318.08
2019-02-15T22:48:10.849Z,98316.94
2019-02-15T22:50:40.805Z,98312.53
2019-02-15T22:53:10.404Z,98310.05
2019-02-15T22:55:40.028Z,98309.89
2019-02-15T22:58:09.624Z,98306.95
2019-02-15T23:00:51.334Z,98312.27
2019-02-15T23:03:24.417Z,98311.75
2019-02-15T23:05:54.105Z,98307.71
2019-02-15T23:08:23.732Z,98314.06
2019-02-15T23:10:53.509Z,98302.25
2019-02-15T23:13:23.100Z,98300.17
2019-02-15T23:15:52.797Z,98309.13
2019-02-15T23:18:22.399Z,98302.56
2019-02-15T23:20:52.799Z,98295.59
2019-02-15T23:23:22.402Z,98298.39
2019-02-15T23:25:53.900Z,98295.70
2019-02-15T23:28:23.532Z,98294.34
2019-02-15T23:30:53.161Z,98300.32
2019-02-15T23:33:23.429Z,98296.84
2019-02-15T23:35:53.120Z,98291.14
2019-02-15T23:38:22.760Z,98297.62
2019-02-15T23:40:52.358Z,98293.05
2019-02-15T23:43:21.963Z,98296.45
2019-02-15T23:45:51.862Z,98293.27
2019-02-15T23:48:21.529Z,98288.95
2019-02-15T23:50:55.083Z,98283.53
2019-02-15T23:53:23.267Z,98278.72
2019-02-15T23:55:52.865Z,98273.89
2019-02-15T23:58:22.494Z,98274.45
